createdAt,value
2023-03-28T00:01:38.615Z,52.72
2023-03-28T00:04:05.296Z,51.79
2023-03-28T00:06:32.128Z,52.83
2023-03-28T00:08:58.675Z,52.12
2023-03-28T00:11:25.217Z,52.03
2023-03-28T00:14:00.120Z,52.23
2023-03-28T00:16:33.158Z,52.71
2023-03-28T00:19:06.157Z,52.24
2023-03-28T00:21:36.390Z,51.73
2023-03-28T00:24:05.267Z,51.26
2023-03-28T00:26:36.086Z,51.40
2023-03-28T00:29:05.874Z,51.71
2023-03-28T00:31:34.835Z,51.18
2023-03-28T00:34:02.101Z,51.13
2023-03-28T00:36:29.245Z,51.67
2023-03-28T00:38:57.836Z,51.54
2023-03-28T00:41:30.964Z,51.95
2023-03-28T00:43:58.587Z,52.71
2023-03-28T00:46:36.643Z,52.71
2023-03-28T00:49:17.586Z,52.16
2023-03-28T00:51:53.629Z,52.89
2023-03-28T00:54:20.848Z,51.59
2023-03-28T00:56:52.138Z,51.81
2023-03-28T00:59:21.494Z,51.47
2023-03-28T01:01:49.405Z,51.86
2023-03-28T01:04:20.319Z,52.07
2023-03-28T01:06:54.545Z,51.61
2023-03-28T01:09:24.083Z,52.58
2023-03-28T01:11:54.964Z,52.12
2023-03-28T01:14:24.924Z,52.39
2023-03-28T01:16:56.615Z,51.68
2023-03-28T01:20:03.155Z,51.80
2023-03-28T01:22:56.315Z,51.72
2023-03-28T01:25:48.411Z,51.89
2023-03-28T01:28:49.536Z,51.82
2023-03-28T01:31:48.600Z,53.54
2023-03-28T01:35:02.663Z,51.65
2023-03-28T01:37:38.753Z,52.21
2023-03-28T01:40:35.813Z,51.92
2023-03-28T01:43:20.675Z,52.55
2023-03-28T01:45:48.190Z,51.56
2023-03-28T01:48:37.218Z,52.63
2023-03-28T01:51:06.810Z,52.71
2023-03-28T01:54:02.432Z,52.32
2023-03-28T01:56:42.146Z,52.61
2023-03-28T01:59:21.616Z,53.04
2023-03-28T02:02:16.468Z,52.82
2023-03-28T02:04:45.236Z,53.35
2023-03-28T02:07:13.227Z,51.85
2023-03-28T02:10:03.822Z,52.63
2023-03-28T02:13:08.151Z,52.43
2023-03-28T02:15:48.898Z,52.29
2023-03-28T02:18:51.168Z,52.63
2023-03-28T02:22:14.103Z,52.34
2023-03-28T02:25:04.166Z,52.62
2023-03-28T02:28:02.476Z,52.41
2023-03-28T02:30:36.811Z,51.91
2023-03-28T02:33:08.600Z,52.03
2023-03-28T02:35:57.114Z,52.12
2023-03-28T02:38:37.553Z,51.88
2023-03-28T02:41:42.480Z,52.57
2023-03-28T02:44:27.346Z,52.39
2023-03-28T02:47:18.529Z,52.54
2023-03-28T02:50:09.251Z,51.94
2023-03-28T02:52:58.493Z,51.85
2023-03-28T02:55:56.377Z,52.72
2023-03-28T02:59:07.197Z,52.23
2023-03-28T03:01:36.563Z,52.50
2023-03-28T03:04:03.727Z,52.82
2023-03-28T03:06:30.270Z,52.33
2023-03-28T03:08:56.965Z,52.58
2023-03-28T03:11:27.968Z,52.22
2023-03-28T03:13:57.184Z,52.02
2023-03-28T03:16:23.808Z,53.01
2023-03-28T03:18:50.772Z,51.96
2023-03-28T03:21:17.881Z,52.07
2023-03-28T03:23:44.456Z,51.93
2023-03-28T03:26:11.132Z,51.66
2023-03-28T03:28:41.193Z,52.22
2023-03-28T03:31:08.559Z,52.01
2023-03-28T03:33:35.257Z,52.05
2023-03-28T03:36:05.744Z,52.76
2023-03-28T03:38:33.213Z,52.34
2023-03-28T03:41:01.167Z,52.31
2023-03-28T03:43:28.381Z,52.11
2023-03-28T03:45:56.333Z,52.28
2023-03-28T03:48:23.200Z,53.27
2023-03-28T03:50:55.980Z,51.90
2023-03-28T03:53:22.747Z,52.58
2023-03-28T03:56:01.739Z,51.81
2023-03-28T03:58:36.555Z,51.58
2023-03-28T04:01:09.750Z,51.98
2023-03-28T04:03:37.603Z,51.55
2023-03-28T04:06:05.335Z,52.34
2023-03-28T04:08:33.105Z,51.86
2023-03-28T04:11:00.200Z,52.07
2023-03-28T04:13:27.758Z,51.84
2023-03-28T04:15:59.344Z,52.22
2023-03-28T04:18:37.826Z,52.40
2023-03-28T04:21:05.591Z,51.70
2023-03-28T04:23:44.042Z,51.84
2023-03-28T04:26:37.699Z,53.59
2023-03-28T04:29:06.779Z,51.98
2023-03-28T04:31:39.569Z,51.81
2023-03-28T04:34:39.158Z,51.51
2023-03-28T04:37:09.137Z,52.36
2023-03-28T04:39:49.636Z,51.27
2023-03-28T04:42:35.652Z,51.38
2023-03-28T04:45:31.360Z,51.55
2023-03-28T04:48:04.851Z,51.93
2023-03-28T04:50:32.472Z,51.74
2023-03-28T04:53:00.235Z,51.51
2023-03-28T04:55:26.785Z,51.22
2023-03-28T04:57:53.648Z,51.00
2023-03-28T05:00:22.524Z,51.14
2023-03-28T05:03:07.155Z,51.12
2023-03-28T05:05:41.371Z,51.07
2023-03-28T05:08:12.898Z,51.01
2023-03-28T05:10:39.920Z,51.40
2023-03-28T05:13:07.942Z,50.79
2023-03-28T05:15:42.460Z,50.92
2023-03-28T05:18:27.833Z,51.43
2023-03-28T05:20:54.560Z,50.88
2023-03-28T05:23:22.476Z,51.40
2023-03-28T05:25:53.385Z,51.61
2023-03-28T05:28:21.461Z,51.50
2023-03-28T05:30:51.290Z,51.38
2023-03-28T05:33:18.221Z,51.12
2023-03-28T05:35:46.450Z,50.76
2023-03-28T05:38:14.400Z,51.21
2023-03-28T05:40:42.127Z,51.17
2023-03-28T05:43:08.732Z,50.52
2023-03-28T05:45:35.887Z,50.72
2023-03-28T05:48:28.658Z,50.59
2023-03-28T05:50:55.527Z,49.95
2023-03-28T05:53:22.240Z,50.25
2023-03-28T05:55:50.003Z,49.82
2023-03-28T05:58:18.227Z,50.30
2023-03-28T06:00:44.780Z,49.46
2023-03-28T06:03:16.385Z,49.32
2023-03-28T06:05:45.042Z,49.55
2023-03-28T06:08:19.372Z,49.33
2023-03-28T06:10:46.546Z,49.31
2023-03-28T06:13:24.509Z,48.88
2023-03-28T06:15:51.657Z,48.88
2023-03-28T06:18:21.850Z,50.04
2023-03-28T06:20:49.656Z,49.82
2023-03-28T06:23:16.537Z,49.72
2023-03-28T06:25:43.834Z,48.61
2023-03-28T06:28:11.741Z,49.23
2023-03-28T06:30:58.640Z,48.41
2023-03-28T06:33:25.814Z,48.06
2023-03-28T06:35:52.413Z,49.10
2023-03-28T06:38:19.178Z,48.67
2023-03-28T06:40:50.305Z,48.17
2023-03-28T06:43:16.982Z,48.32
2023-03-28T06:45:46.874Z,48.24
2023-03-28T06:48:14.743Z,48.32
2023-03-28T06:51:00.506Z,48.17
2023-03-28T06:53:28.167Z,47.67
2023-03-28T06:55:55.661Z,47.13
2023-03-28T06:58:23.379Z,46.59
2023-03-28T07:00:58.431Z,46.33
2023-03-28T07:03:43.802Z,46.44
2023-03-28T07:06:13.291Z,46.72
2023-03-28T07:08:39.897Z,46.18
2023-03-28T07:11:06.842Z,45.44
2023-03-28T07:13:34.074Z,44.79
2023-03-28T07:16:12.288Z,45.49
2023-03-28T07:18:39.085Z,46.05
2023-03-28T07:21:11.190Z,45.12
2023-03-28T07:23:39.336Z,44.59
2023-03-28T07:26:07.335Z,44.29
2023-03-28T07:28:34.499Z,44.06
2023-03-28T07:31:04.499Z,43.51
2023-03-28T07:33:37.475Z,44.12
2023-03-28T07:36:21.143Z,42.74
2023-03-28T07:38:55.122Z,42.12
2023-03-28T07:41:24.425Z,41.93
2023-03-28T07:43:51.034Z,42.29
2023-03-28T07:46:17.943Z,43.14
2023-03-28T07:48:46.732Z,41.87
2023-03-28T07:51:14.656Z,42.22
2023-03-28T07:53:41.388Z,41.42
2023-03-28T07:56:12.450Z,41.27
2023-03-28T07:58:57.673Z,39.94
2023-03-28T08:01:24.928Z,40.08
2023-03-28T08:04:03.372Z,40.34
2023-03-28T08:06:42.493Z,40.27
2023-03-28T08:09:11.708Z,40.52
2023-03-28T08:11:44.242Z,39.61
2023-03-28T08:14:17.184Z,40.65
2023-03-28T08:16:45.328Z,40.81
2023-03-28T08:19:13.151Z,38.63
2023-03-28T08:22:07.658Z,38.17
2023-03-28T08:24:41.687Z,38.31
2023-03-28T08:27:14.026Z,38.13
2023-03-28T08:29:42.920Z,39.06
2023-03-28T08:32:10.590Z,38.99
2023-03-28T08:34:37.989Z,38.47
2023-03-28T08:37:10.872Z,38.53
2023-03-28T08:39:39.666Z,39.65
2023-03-28T08:42:39.605Z,39.18
2023-03-28T08:45:13.236Z,39.30
2023-03-28T08:47:59.013Z,38.81
2023-03-28T08:53:30.539Z,39.73
2023-03-28T08:55:59.156Z,38.93
2023-03-28T08:58:34.568Z,38.20
2023-03-28T09:01:02.047Z,37.92
2023-03-28T09:03:36.735Z,38.01
2023-03-28T09:06:33.281Z,37.00
2023-03-28T09:09:32.266Z,36.84
2023-03-28T09:12:39.107Z,37.16
2023-03-28T09:15:14.839Z,37.09
2023-03-28T09:18:06.570Z,36.54
2023-03-28T09:20:39.549Z,36.18
2023-03-28T09:23:42.660Z,36.58
2023-03-28T09:26:35.879Z,37.06
2023-03-28T09:29:11.740Z,37.72
2023-03-28T09:31:44.638Z,37.80
2023-03-28T09:34:23.773Z,37.41
2023-03-28T09:36:56.403Z,38.10
2023-03-28T09:39:30.359Z,37.22
2023-03-28T09:42:06.974Z,36.06
2023-03-28T09:45:28.232Z,35.89
2023-03-28T09:48:33.562Z,37.23
2023-03-28T09:51:06.400Z,36.23
2023-03-28T09:53:37.609Z,36.60
2023-03-28T09:56:17.837Z,35.64
2023-03-28T09:59:15.138Z,33.33
2023-03-28T10:01:50.689Z,33.46
2023-03-28T10:04:38.097Z,32.13
2023-03-28T10:07:43.474Z,32.90
2023-03-28T10:10:23.425Z,32.80
2023-03-28T10:13:02.414Z,33.18
2023-03-28T10:15:41.283Z,32.51
2023-03-28T10:18:21.570Z,33.57
2023-03-28T10:21:24.010Z,33.16
2023-03-28T10:24:08.006Z,31.38
2023-03-28T10:26:36.389Z,32.05
2023-03-28T10:29:08.498Z,31.21
2023-03-28T10:31:39.675Z,31.25
2023-03-28T10:34:30.028Z,31.15
2023-03-28T10:37:25.926Z,30.65
2023-03-28T10:40:30.079Z,31.50
2023-03-28T10:43:40.537Z,32.92
2023-03-28T10:46:18.840Z,32.59
2023-03-28T10:49:16.983Z,31.46
2023-03-28T10:51:49.432Z,31.24
2023-03-28T10:54:19.625Z,30.85
2023-03-28T10:57:07.633Z,32.18
2023-03-28T11:00:07.160Z,32.21
2023-03-28T11:02:51.645Z,30.59
2023-03-28T11:05:37.490Z,30.19
2023-03-28T11:08:26.841Z,27.40
2023-03-28T11:11:31.690Z,29.05
2023-03-28T11:14:01.832Z,28.72
2023-03-28T11:16:53.258Z,29.19
2023-03-28T11:20:17.704Z,30.06
2023-03-28T11:23:06.488Z,28.36
2023-03-28T11:26:13.154Z,24.01
2023-03-28T11:29:18.398Z,24.89
2023-03-28T11:32:08.810Z,26.23
2023-03-28T11:34:46.292Z,26.34
2023-03-28T11:37:22.642Z,27.75
2023-03-28T11:40:01.304Z,28.13
2023-03-28T11:43:01.480Z,27.78
2023-03-28T11:45:52.959Z,26.17
2023-03-28T11:48:46.178Z,24.17
2023-03-28T11:51:22.062Z,21.05
2023-03-28T11:54:16.163Z,18.21
2023-03-28T11:56:53.466Z,17.21
2023-03-28T11:59:40.412Z,16.40
2023-03-28T12:02:35.724Z,20.00
2023-03-28T12:05:19.254Z,23.45
2023-03-28T12:07:56.551Z,24.51
2023-03-28T12:10:36.182Z,24.35
2023-03-28T12:13:19.571Z,21.17
2023-03-28T12:16:03.871Z,20.00
2023-03-28T12:18:38.863Z,19.44
2023-03-28T12:21:08.960Z,18.80
2023-03-28T12:24:25.880Z,18.39
2023-03-28T12:27:12.719Z,18.59
2023-03-28T12:29:50.281Z,17.86
2023-03-28T12:32:34.951Z,17.25
2023-03-28T12:35:29.616Z,16.78
2023-03-28T12:38:20.160Z,16.87
2023-03-28T12:40:59.598Z,18.29
2023-03-28T12:43:53.982Z,17.74
2023-03-28T12:46:49.587Z,16.26
2023-03-28T12:49:33.127Z,17.18
2023-03-28T12:52:12.192Z,17.75
2023-03-28T12:55:02.194Z,18.01
2023-03-28T12:57:47.494Z,17.77
2023-03-28T13:00:51.643Z,17.93
2023-03-28T13:03:42.270Z,17.80
2023-03-28T13:06:26.547Z,18.56
2023-03-28T13:09:05.662Z,19.81
2023-03-28T13:11:35.467Z,19.61
2023-03-28T13:14:27.784Z,18.42
2023-03-28T13:17:25.827Z,18.56
2023-03-28T13:20:12.689Z,18.25
2023-03-28T13:23:02.094Z,17.95
2023-03-28T13:25:32.367Z,18.12
2023-03-28T13:28:19.027Z,17.39
2023-03-28T13:30:46.881Z,17.88
2023-03-28T13:33:32.429Z,18.22
2023-03-28T13:35:58.992Z,18.22
2023-03-28T13:38:28.634Z,16.42
2023-03-28T13:41:09.105Z,14.80
2023-03-28T13:43:46.664Z,13.95
2023-03-28T13:46:28.369Z,12.95
2023-03-28T13:49:02.825Z,13.93
2023-03-28T13:52:07.662Z,12.55
2023-03-28T13:54:34.123Z,12.45
2023-03-28T13:57:14.912Z,13.95
2023-03-28T13:59:49.349Z,14.14
2023-03-28T14:02:37.933Z,14.73
2023-03-28T14:05:19.622Z,15.90
2023-03-28T14:07:47.158Z,17.30
2023-03-28T14:10:30.298Z,17.02
2023-03-28T14:13:04.037Z,17.15
2023-03-28T14:15:35.253Z,16.96
2023-03-28T14:18:03.410Z,17.60
2023-03-28T14:20:32.080Z,17.51
2023-03-28T14:23:01.041Z,17.95
2023-03-28T14:25:28.724Z,19.08
2023-03-28T14:27:57.201Z,18.94
2023-03-28T14:30:37.183Z,19.37
2023-03-28T14:33:12.035Z,18.81
2023-03-28T14:35:47.808Z,19.43
2023-03-28T14:38:28.033Z,20.47
2023-03-28T14:40:55.871Z,20.36
2023-03-28T14:43:30.386Z,19.79
2023-03-28T14:46:02.906Z,19.29
2023-03-28T14:48:32.156Z,20.15
2023-03-28T14:51:06.005Z,20.52
2023-03-28T14:53:42.582Z,20.68
2023-03-28T14:56:12.813Z,21.92
2023-03-28T14:58:42.494Z,21.94
2023-03-28T15:01:13.465Z,21.92
2023-03-28T15:03:45.795Z,22.38
2023-03-28T15:06:18.528Z,23.24
2023-03-28T15:08:45.761Z,23.03
2023-03-28T15:11:37.028Z,23.35
2023-03-28T15:14:07.044Z,23.48
2023-03-28T15:16:38.338Z,23.09
2023-03-28T15:19:39.982Z,23.38
2023-03-28T15:22:24.081Z,22.73
2023-03-28T15:24:50.896Z,22.58
2023-03-28T15:27:28.601Z,22.36
2023-03-28T15:29:55.828Z,23.54
2023-03-28T15:32:22.645Z,23.12
2023-03-28T15:35:00.718Z,24.36
2023-03-28T15:37:27.922Z,23.61
2023-03-28T15:40:10.574Z,23.92
2023-03-28T15:42:37.387Z,23.19
2023-03-28T15:45:19.653Z,23.60
2023-03-28T15:47:55.915Z,23.15
2023-03-28T15:50:26.238Z,23.19
2023-03-28T15:52:57.991Z,23.27
2023-03-28T15:55:26.982Z,24.28
2023-03-28T15:57:56.225Z,23.69
2023-03-28T16:00:37.245Z,23.05
2023-03-28T16:03:16.319Z,23.70
2023-03-28T16:05:49.088Z,23.99
2023-03-28T16:08:30.984Z,23.69
2023-03-28T16:10:58.531Z,24.17
2023-03-28T16:13:37.090Z,23.82
2023-03-28T16:16:29.222Z,23.74
2023-03-28T16:19:21.515Z,23.88
2023-03-28T16:21:48.656Z,23.67
2023-03-28T16:24:15.378Z,23.72
2023-03-28T16:26:42.007Z,23.93
2023-03-28T16:29:08.575Z,24.45
2023-03-28T16:31:35.236Z,24.43
2023-03-28T16:34:01.966Z,23.85
2023-03-28T16:36:28.609Z,24.42
2023-03-28T16:38:55.207Z,24.47
2023-03-28T16:41:21.794Z,25.73
2023-03-28T16:43:48.375Z,26.28
2023-03-28T16:46:15.027Z,24.90
2023-03-28T16:48:41.655Z,25.83
2023-03-28T16:51:08.164Z,26.28
2023-03-28T16:53:36.285Z,25.05
2023-03-28T16:56:03.927Z,24.82
2023-03-28T16:58:31.100Z,24.81
2023-03-28T17:00:58.346Z,25.15
2023-03-28T17:03:25.092Z,26.14
2023-03-28T17:05:51.743Z,27.59
2023-03-28T17:08:18.328Z,26.87
2023-03-28T17:10:44.969Z,26.57
2023-03-28T17:13:11.517Z,27.11
2023-03-28T17:15:38.110Z,27.52
2023-03-28T17:18:05.633Z,27.21
2023-03-28T17:20:32.393Z,27.40
2023-03-28T17:22:59.084Z,27.64
2023-03-28T17:25:26.528Z,28.32
2023-03-28T17:27:53.115Z,27.96
2023-03-28T17:30:19.679Z,27.76
2023-03-28T17:32:46.581Z,28.56
2023-03-28T17:35:14.636Z,28.86
2023-03-28T17:37:41.225Z,29.35
2023-03-28T17:40:08.349Z,29.72
2023-03-28T17:42:35.075Z,29.73
2023-03-28T17:45:01.658Z,31.08
2023-03-28T17:47:28.256Z,31.73
2023-03-28T17:49:56.941Z,32.81
2023-03-28T17:52:24.361Z,33.53
2023-03-28T17:54:51.598Z,32.22
2023-03-28T17:57:18.513Z,32.65
2023-03-28T17:59:45.550Z,32.82
2023-03-28T18:02:12.154Z,33.96
2023-03-28T18:04:39.842Z,32.40
2023-03-28T18:07:18.320Z,31.97
2023-03-28T18:09:45.457Z,32.96
2023-03-28T18:12:13.101Z,33.16
2023-03-28T18:14:39.705Z,34.82
2023-03-28T18:17:06.608Z,33.90
2023-03-28T18:19:33.172Z,34.16
2023-03-28T18:22:00.637Z,33.44
2023-03-28T18:24:27.938Z,34.48
2023-03-28T18:26:54.682Z,34.74
2023-03-28T18:29:21.670Z,35.09
2023-03-28T18:31:48.476Z,35.36
2023-03-28T18:34:15.304Z,35.02
2023-03-28T18:36:42.219Z,36.11
2023-03-28T18:39:10.242Z,35.85
2023-03-28T18:41:37.554Z,35.96
2023-03-28T18:44:05.153Z,36.08
2023-03-28T18:46:31.890Z,36.09
2023-03-28T18:49:00.116Z,36.49
2023-03-28T18:51:27.790Z,36.60
2023-03-28T18:53:54.692Z,36.81
2023-03-28T18:56:21.931Z,36.77
2023-03-28T18:58:50.675Z,37.02
2023-03-28T19:01:18.523Z,37.80
2023-03-28T19:03:47.075Z,38.07
2023-03-28T19:06:15.190Z,37.84
2023-03-28T19:08:42.334Z,38.67
2023-03-28T19:11:15.335Z,37.66
2023-03-28T19:13:42.369Z,38.39
2023-03-28T19:16:12.426Z,38.66
2023-03-28T19:18:40.490Z,39.00
2023-03-28T19:21:08.556Z,39.44
2023-03-28T19:23:36.783Z,39.89
2023-03-28T19:26:06.661Z,39.83
2023-03-28T19:28:33.226Z,39.87
2023-03-28T19:31:05.343Z,40.33
2023-03-28T19:33:32.517Z,39.76
2023-03-28T19:35:59.532Z,39.95
2023-03-28T19:38:27.317Z,40.07
2023-03-28T19:41:01.691Z,40.30
2023-03-28T19:43:29.527Z,40.14
2023-03-28T19:46:04.337Z,40.27
2023-03-28T19:48:31.988Z,40.57
2023-03-28T19:50:58.748Z,40.37
2023-03-28T19:53:25.397Z,40.60
2023-03-28T19:55:53.603Z,40.49
2023-03-28T19:58:20.216Z,40.27
2023-03-28T20:00:47.749Z,39.76
2023-03-28T20:03:14.555Z,39.77
2023-03-28T20:05:42.518Z,39.36
2023-03-28T20:08:09.273Z,39.73
2023-03-28T20:10:54.126Z,40.28
2023-03-28T20:13:20.820Z,41.08
2023-03-28T20:15:47.527Z,40.55
2023-03-28T20:18:20.288Z,40.20
2023-03-28T20:20:51.685Z,40.42
2023-03-28T20:23:20.252Z,41.20
2023-03-28T20:25:47.644Z,41.52
2023-03-28T20:28:14.462Z,41.55
2023-03-28T20:30:41.875Z,41.37
2023-03-28T20:33:08.682Z,41.23
2023-03-28T20:35:35.948Z,41.68
2023-03-28T20:38:02.816Z,40.96
2023-03-28T20:40:29.445Z,40.97
2023-03-28T20:42:57.402Z,41.10
2023-03-28T20:45:24.058Z,41.59
2023-03-28T20:47:56.252Z,41.48
2023-03-28T20:50:33.753Z,41.63
2023-03-28T20:53:01.911Z,41.52
2023-03-28T20:55:29.398Z,40.96
2023-03-28T20:57:56.481Z,41.15
2023-03-28T21:00:24.852Z,41.54
2023-03-28T21:02:53.669Z,40.96
2023-03-28T21:05:21.975Z,40.48
2023-03-28T21:07:49.446Z,40.91
2023-03-28T21:10:16.619Z,41.47
2023-03-28T21:12:43.770Z,41.60
2023-03-28T21:15:15.303Z,41.74
2023-03-28T21:17:41.962Z,41.78
2023-03-28T21:20:10.358Z,41.59
2023-03-28T21:22:37.999Z,41.69
2023-03-28T21:25:08.430Z,41.32
2023-03-28T21:27:36.740Z,41.48
2023-03-28T21:30:07.611Z,41.61
2023-03-28T21:32:35.775Z,41.38
2023-03-28T21:35:04.135Z,41.31
2023-03-28T21:37:31.150Z,41.00
2023-03-28T21:39:57.849Z,41.15
2023-03-28T21:42:24.805Z,40.73
2023-03-28T21:44:51.906Z,41.55
2023-03-28T21:47:18.440Z,41.17
2023-03-28T21:49:45.940Z,41.19
2023-03-28T21:52:12.772Z,41.00
2023-03-28T21:54:39.299Z,41.01
2023-03-28T21:57:05.909Z,41.73
2023-03-28T21:59:32.465Z,42.28
2023-03-28T22:01:59.251Z,42.24
2023-03-28T22:04:27.825Z,42.05
2023-03-28T22:06:55.372Z,42.04
2023-03-28T22:09:21.911Z,42.04
2023-03-28T22:11:48.844Z,41.77
2023-03-28T22:14:15.455Z,41.79
2023-03-28T22:16:42.537Z,41.94
2023-03-28T22:19:09.565Z,41.70
2023-03-28T22:21:36.964Z,41.59
2023-03-28T22:24:06.152Z,41.03
2023-03-28T22:26:32.836Z,41.22
2023-03-28T22:28:59.465Z,41.70
2023-03-28T22:31:27.099Z,41.66
2023-03-28T22:33:54.235Z,41.37
2023-03-28T22:36:21.719Z,41.20
2023-03-28T22:38:48.446Z,41.39
2023-03-28T22:41:14.987Z,41.50
2023-03-28T22:43:45.003Z,41.32
2023-03-28T22:46:16.372Z,41.50
2023-03-28T22:48:43.964Z,41.98
2023-03-28T22:51:15.694Z,41.53
2023-03-28T22:53:42.453Z,41.63
2023-03-28T22:56:09.088Z,41.02
2023-03-28T22:58:36.162Z,41.30
2023-03-28T23:01:04.113Z,41.87
2023-03-28T23:03:31.091Z,41.15
2023-03-28T23:06:01.768Z,41.39
2023-03-28T23:08:28.440Z,41.69
2023-03-28T23:10:55.222Z,41.38
2023-03-28T23:13:21.772Z,41.33
2023-03-28T23:15:48.527Z,41.04
2023-03-28T23:18:16.341Z,41.25
2023-03-28T23:20:43.575Z,41.10
2023-03-28T23:23:11.966Z,41.02
2023-03-28T23:25:39.006Z,41.96
2023-03-28T23:28:05.732Z,41.84
2023-03-28T23:30:32.296Z,41.71
2023-03-28T23:32:58.877Z,43.63
2023-03-28T23:35:25.980Z,42.75
2023-03-28T23:37:53.218Z,42.28
2023-03-28T23:40:20.544Z,42.29
2023-03-28T23:42:47.064Z,42.83
2023-03-28T23:45:15.084Z,42.19
2023-03-28T23:47:42.853Z,42.17
2023-03-28T23:50:10.430Z,42.24
2023-03-28T23:52:37.235Z,42.36
2023-03-28T23:55:04.050Z,42.56
2023-03-28T23:57:30.662Z,42.19
2023-03-28T23:59:57.206Z,42.64
